Hmcs Charlottetown — CGAJ — position and weather

sailwx.info

Track history (hours):
 
Tides and Currents Weather Stations Pressure Air Temp Water Temp Dewpoint Dewpoint Depression Visibility Wind Speed Wind Dir Waves Ship Positions

Hmcs Charlottetown

Last reported at 2015-Mar-26 13:22 UTC. Time now 2015-Mar-30 16:19 UTC.
Position N 44°39' W 063°35'.

; draft 7.5 m.

Type: Military. MMSI: 235830006.

Date/timePositionNaut miles runAvg speedWind from/ knotsBaromVisibWave heightAir tempDewpointWater temp
2015-Mar-26 13:22N 44°39' W 063°35'2 2.8
2015-Mar-26 12:33N 44°37' W 063°33'3 0.2
2015-Mar-25 18:32N 44°40' W 063°35'3 3.1
2015-Mar-25 17:33N 44°42' W 063°39'2 1.6
2015-Mar-25 16:33N 44°41' W 063°37'1 1.5
2015-Mar-25 15:32N 44°42' W 063°39'1 1.2
2015-Mar-25 14:33N 44°41' W 063°37'1 0.7
2015-Mar-25 13:33N 44°42' W 063°38'2 1.7
2015-Mar-25 12:33N 44°41' W 063°36'9 8.7
2015-Mar-25 11:33N 44°33' W 063°31'6 0.5
2015-Mar-25 00:32N 44°34' W 063°23'1 0.2
2015-Mar-24 21:23N 44°34' W 063°24'1 0.6
2015-Mar-24 20:31N 44°35' W 063°24'1 0.1
2015-Mar-24 12:15N 44°34' W 063°25'0 0.1
2015-Mar-24 11:11N 44°34' W 063°25'  
Track history (hours):
 
Tides and Currents Weather Stations Pressure Air Temp Water Temp Dewpoint Dewpoint Depression Visibility Wind Speed Wind Dir Waves Ship Positions

Hmcs Charlottetown

Last reported at 2015-Mar-26 13:22 UTC. Time now 2015-Mar-30 16:19 UTC.
Position N 44°39' W 063°35'.

; draft 7.5 m.

Type: Military. MMSI: 235830006.

Date/timePositionNaut miles runAvg speedWind from/ knotsBaromVisibWave heightAir tempDewpointWater temp
2015-Mar-26 13:22N 44°39' W 063°35'2 2.8
2015-Mar-26 12:33N 44°37' W 063°33'3 0.2
2015-Mar-25 18:32N 44°40' W 063°35'3 3.1
2015-Mar-25 17:33N 44°42' W 063°39'2 1.6
2015-Mar-25 16:33N 44°41' W 063°37'1 1.5
2015-Mar-25 15:32N 44°42' W 063°39'1 1.2
2015-Mar-25 14:33N 44°41' W 063°37'1 0.7
2015-Mar-25 13:33N 44°42' W 063°38'2 1.7
2015-Mar-25 12:33N 44°41' W 063°36'9 8.7
2015-Mar-25 11:33N 44°33' W 063°31'6 0.5
2015-Mar-25 00:32N 44°34' W 063°23'1 0.2
2015-Mar-24 21:23N 44°34' W 063°24'1 0.6
2015-Mar-24 20:31N 44°35' W 063°24'1 0.1
2015-Mar-24 12:15N 44°34' W 063°25'0 0.1
2015-Mar-24 11:11N 44°34' W 063°25'  

Dump ship's entire track history